Santa Venetia, California
Current Conditions -  °F | °C
As of 5:15 PM on Tuesday 27 Jan 2015 (Local Time) from KO69 Reporting Station
Clear Clear  
Wind Chill: 16°   Ceiling: Unl
Heat Index: 16°   Visibility: 10mi
Dew Point: 10°   Wind: 0mph
Humidity: 68%   Direction: NA
Pressure: 30.23"   Gusts: NA
Location:  38.0232°N, 122.547°W
Report Text: KO69 280115Z AUTO 00000KT 10SM CLR 16/10 A3023 RMK AO1
Loading
Personal Weather Stations






























Interactive Weather Map New forecast layout! Learn more

10-Day Weather Forecast

Advertisements
Track Severe Weather on mobile